sensor_id;sensor_type;location;lat;lon;timestamp;pressure;altitude;pressure_sealevel;temperature;humidity
26083;BME280;13848;49.018;12.078;2024-02-26T00:00:41;96076.06;;;4.49;82.99
26083;BME280;13848;49.018;12.078;2024-02-26T00:03:07;96068.44;;;4.53;82.51
26083;BME280;13848;49.018;12.078;2024-02-26T00:05:33;96066.44;;;4.48;83.13
26083;BME280;13848;49.018;12.078;2024-02-26T00:07:59;96063.16;;;4.46;81.61
26083;BME280;13848;49.018;12.078;2024-02-26T00:10:26;96053.84;;;4.37;83.63
26083;BME280;13848;49.018;12.078;2024-02-26T00:12:52;96054.56;;;4.44;82.99
26083;BME280;13848;49.018;12.078;2024-02-26T00:15:18;96055.16;;;4.46;81.85
26083;BME280;13848;49.018;12.078;2024-02-26T00:17:44;96063.94;;;4.53;82.39
26083;BME280;13848;49.018;12.078;2024-02-26T00:20:11;96058.59;;;4.53;81.60
26083;BME280;13848;49.018;12.078;2024-02-26T00:22:37;96057.47;;;4.43;82.74
26083;BME280;13848;49.018;12.078;2024-02-26T00:25:04;96057.72;;;4.41;83.36
26083;BME280;13848;49.018;12.078;2024-02-26T00:27:31;96059.91;;;4.44;82.46
26083;BME280;13848;49.018;12.078;2024-02-26T00:29:57;96055.84;;;4.42;82.48
26083;BME280;13848;49.018;12.078;2024-02-26T00:32:23;96046.41;;;4.39;82.54
26083;BME280;13848;49.018;12.078;2024-02-26T00:34:49;96054.28;;;4.34;82.75
26083;BME280;13848;49.018;12.078;2024-02-26T00:37:15;96053.84;;;4.37;82.84
26083;BME280;13848;49.018;12.078;2024-02-26T00:39:41;96049.91;;;4.40;82.98
26083;BME280;13848;49.018;12.078;2024-02-26T00:42:07;96060.66;;;4.51;81.81
26083;BME280;13848;49.018;12.078;2024-02-26T00:44:34;96054.88;;;4.54;81.69
26083;BME280;13848;49.018;12.078;2024-02-26T00:47:00;96050.66;;;4.47;82.39
26083;BME280;13848;49.018;12.078;2024-02-26T00:49:26;96053.75;;;4.44;82.15
26083;BME280;13848;49.018;12.078;2024-02-26T00:51:52;96044.38;;;4.41;82.15
26083;BME280;13848;49.018;12.078;2024-02-26T00:54:18;96044.38;;;4.41;81.94
26083;BME280;13848;49.018;12.078;2024-02-26T00:56:44;96050.13;;;4.38;82.68
26083;BME280;13848;49.018;12.078;2024-02-26T00:59:10;96047.69;;;4.37;83.18
26083;BME280;13848;49.018;12.078;2024-02-26T01:01:37;96044.78;;;4.38;82.43
26083;BME280;13848;49.018;12.078;2024-02-26T01:04:03;96042.72;;;4.40;82.35
26083;BME280;13848;49.018;12.078;2024-02-26T01:06:29;96037.59;;;4.39;82.13
26083;BME280;13848;49.018;12.078;2024-02-26T01:08:55;96045.69;;;4.32;82.26
26083;BME280;13848;49.018;12.078;2024-02-26T01:11:21;96038.00;;;4.24;83.56
26083;BME280;13848;49.018;12.078;2024-02-26T01:13:47;96044.06;;;4.31;83.26
26083;BME280;13848;49.018;12.078;2024-02-26T01:16:13;96047.31;;;4.33;82.23
26083;BME280;13848;49.018;12.078;2024-02-26T01:18:40;96041.25;;;4.26;82.89
26083;BME280;13848;49.018;12.078;2024-02-26T01:21:06;96041.25;;;4.26;82.03
26083;BME280;13848;49.018;12.078;2024-02-26T01:23:32;96042.88;;;4.27;81.00
26083;BME280;13848;49.018;12.078;2024-02-26T01:25:58;96033.97;;;4.15;81.79
26083;BME280;13848;49.018;12.078;2024-02-26T01:28:24;96040.19;;;4.09;81.58
26083;BME280;13848;49.018;12.078;2024-02-26T01:30:50;96038.72;;;4.13;81.71
26083;BME280;13848;49.018;12.078;2024-02-26T01:33:16;96042.72;;;4.04;80.65
26083;BME280;13848;49.018;12.078;2024-02-26T01:35:43;96038.72;;;3.94;81.89
26083;BME280;13848;49.018;12.078;2024-02-26T01:38:09;96035.91;;;3.89;82.41
26083;BME280;13848;49.018;12.078;2024-02-26T01:40:35;96039.16;;;3.91;81.59
26083;BME280;13848;49.018;12.078;2024-02-26T01:43:01;96041.66;;;3.86;81.31
26083;BME280;13848;49.018;12.078;2024-02-26T01:45:27;96044.38;;;3.80;81.54
26083;BME280;13848;49.018;12.078;2024-02-26T01:47:54;96057.31;;;3.76;81.37
26083;BME280;13848;49.018;12.078;2024-02-26T01:50:21;96057.31;;;3.76;81.56
26083;BME280;13848;49.018;12.078;2024-02-26T01:52:49;96054.06;;;3.74;81.11
26083;BME280;13848;49.018;12.078;2024-02-26T01:55:17;96062.50;;;3.71;81.49
26083;BME280;13848;49.018;12.078;2024-02-26T01:57:44;96050.44;;;3.68;81.42
26083;BME280;13848;49.018;12.078;2024-02-26T02:00:11;96046.78;;;3.63;81.53
26083;BME280;13848;49.018;12.078;2024-02-26T02:02:38;96049.50;;;3.56;81.77
26083;BME280;13848;49.018;12.078;2024-02-26T02:05:05;96044.78;;;3.58;81.19
26083;BME280;13848;49.018;12.078;2024-02-26T02:07:32;96044.66;;;3.46;81.41
26083;BME280;13848;49.018;12.078;2024-02-26T02:10:00;96052.25;;;3.50;81.28
26083;BME280;13848;49.018;12.078;2024-02-26T02:12:27;96052.72;;;3.40;81.39
26083;BME280;13848;49.018;12.078;2024-02-26T02:14:53;96044.56;;;3.35;81.19
26083;BME280;13848;49.018;12.078;2024-02-26T02:17:19;96039.16;;;3.41;81.18
26083;BME280;13848;49.018;12.078;2024-02-26T02:19:45;96042.13;;;3.33;81.35
26083;BME280;13848;49.018;12.078;2024-02-26T02:22:12;96039.69;;;3.32;81.82
26083;BME280;13848;49.018;12.078;2024-02-26T02:24:38;96037.81;;;3.32;81.49
26083;BME280;13848;49.018;12.078;2024-02-26T02:27:04;96035.69;;;3.16;81.45
26083;BME280;13848;49.018;12.078;2024-02-26T02:29:30;96033.19;;;3.21;81.77
26083;BME280;13848;49.018;12.078;2024-02-26T02:31:57;96031.06;;;3.30;81.31
26083;BME280;13848;49.018;12.078;2024-02-26T02:34:23;96038.88;;;3.31;81.05
26083;BME280;13848;49.018;12.078;2024-02-26T02:36:51;96034.22;;;3.20;81.42
26083;BME280;13848;49.018;12.078;2024-02-26T02:39:19;96029.59;;;3.09;81.72
26083;BME280;13848;49.018;12.078;2024-02-26T02:41:45;96032.03;;;3.10;81.95
26083;BME280;13848;49.018;12.078;2024-02-26T02:44:11;96023.81;;;3.12;82.02
26083;BME280;13848;49.018;12.078;2024-02-26T02:46:37;96030.00;;;3.06;82.41
26083;BME280;13848;49.018;12.078;2024-02-26T02:49:03;96022.66;;;3.08;82.33
26083;BME280;13848;49.018;12.078;2024-02-26T02:51:29;96022.84;;;3.06;81.35
26083;BME280;13848;49.018;12.078;2024-02-26T02:53:55;96016.28;;;3.09;81.49
26083;BME280;13848;49.018;12.078;2024-02-26T02:56:22;96017.78;;;2.98;81.05
26083;BME280;13848;49.018;12.078;2024-02-26T02:58:48;96024.75;;;2.99;81.51
26083;BME280;13848;49.018;12.078;2024-02-26T03:01:14;96018.94;;;2.77;81.37
26083;BME280;13848;49.018;12.078;2024-02-26T03:03:40;96018.34;;;2.75;81.58
26083;BME280;13848;49.018;12.078;2024-02-26T03:06:06;96021.59;;;2.77;81.72
26083;BME280;13848;49.018;12.078;2024-02-26T03:08:32;96018.28;;;2.82;81.19
26083;BME280;13848;49.018;12.078;2024-02-26T03:10:58;96026.13;;;2.70;81.56
26083;BME280;13848;49.018;12.078;2024-02-26T03:13:25;96025.69;;;2.80;81.27
26083;BME280;13848;49.018;12.078;2024-02-26T03:15:51;96038.78;;;2.81;81.42
26083;BME280;13848;49.018;12.078;2024-02-26T03:18:17;96028.53;;;2.85;80.92
26083;BME280;13848;49.018;12.078;2024-02-26T03:20:43;96035.69;;;2.84;81.11
26083;BME280;13848;49.018;12.078;2024-02-26T03:23:09;96022.06;;;2.67;81.47
26083;BME280;13848;49.018;12.078;2024-02-26T03:25:35;96021.25;;;2.67;81.17
26083;BME280;13848;49.018;12.078;2024-02-26T03:28:01;96022.53;;;2.58;81.58
26083;BME280;13848;49.018;12.078;2024-02-26T03:30:28;96025.00;;;2.53;81.84
26083;BME280;13848;49.018;12.078;2024-02-26T03:32:54;96022.94;;;2.55;81.81
26083;BME280;13848;49.018;12.078;2024-02-26T03:35:20;96018.84;;;2.59;82.15
26083;BME280;13848;49.018;12.078;2024-02-26T03:37:46;96011.84;;;2.64;82.16
26083;BME280;13848;49.018;12.078;2024-02-26T03:40:13;96020.47;;;2.60;81.51
26083;BME280;13848;49.018;12.078;2024-02-26T03:42:39;96022.94;;;2.55;82.24
26083;BME280;13848;49.018;12.078;2024-02-26T03:45:06;96032.94;;;2.59;81.93
26083;BME280;13848;49.018;12.078;2024-02-26T03:47:33;96025.31;;;2.70;81.58
26083;BME280;13848;49.018;12.078;2024-02-26T03:49:59;96022.94;;;2.61;81.22
26083;BME280;13848;49.018;12.078;2024-02-26T03:52:25;96010.81;;;2.65;81.62
26083;BME280;13848;49.018;12.078;2024-02-26T03:54:51;96016.00;;;2.54;81.43
26083;BME280;13848;49.018;12.078;2024-02-26T03:57:17;96014.00;;;2.43;82.05
26083;BME280;13848;49.018;12.078;2024-02-26T03:59:43;96014.00;;;2.43;82.00
26083;BME280;13848;49.018;12.078;2024-02-26T04:02:09;96008.25;;;2.46;82.26
26083;BME280;13848;49.018;12.078;2024-02-26T04:04:36;96015.66;;;2.44;82.40
26083;BME280;13848;49.018;12.078;2024-02-26T04:07:02;96016.88;;;2.41;81.64
26083;BME280;13848;49.018;12.078;2024-02-26T04:09:28;96004.59;;;2.40;81.86
26083;BME280;13848;49.018;12.078;2024-02-26T04:11:56;96009.88;;;2.47;81.07
26083;BME280;13848;49.018;12.078;2024-02-26T04:14:22;96011.56;;;2.41;81.60
26083;BME280;13848;49.018;12.078;2024-02-26T04:16:48;96018.91;;;2.46;81.65
26083;BME280;13848;49.018;12.078;2024-02-26T04:19:14;96012.38;;;2.42;81.38
26083;BME280;13848;49.018;12.078;2024-02-26T04:21:42;96007.91;;;2.35;81.55
26083;BME280;13848;49.018;12.078;2024-02-26T04:24:08;96011.41;;;2.29;81.58
26083;BME280;13848;49.018;12.078;2024-02-26T04:26:34;96009.19;;;2.26;81.66
26083;BME280;13848;49.018;12.078;2024-02-26T04:29:00;96015.31;;;2.20;81.51
26083;BME280;13848;49.018;12.078;2024-02-26T04:31:26;96031.50;;;2.12;81.63
26083;BME280;13848;49.018;12.078;2024-02-26T04:33:52;96016.31;;;2.32;81.89
26083;BME280;13848;49.018;12.078;2024-02-26T04:36:18;96017.75;;;2.28;81.33
26083;BME280;13848;49.018;12.078;2024-02-26T04:38:45;96016.53;;;2.24;81.74
26083;BME280;13848;49.018;12.078;2024-02-26T04:41:11;96015.75;;;2.17;81.96
26083;BME280;13848;49.018;12.078;2024-02-26T04:43:38;96012.66;;;2.20;81.11
26083;BME280;13848;49.018;12.078;2024-02-26T04:46:03;96019.06;;;2.06;81.58
26083;BME280;13848;49.018;12.078;2024-02-26T04:48:29;96019.47;;;2.03;81.87
26083;BME280;13848;49.018;12.078;2024-02-26T04:50:55;96023.53;;;2.12;81.39
26083;BME280;13848;49.018;12.078;2024-02-26T04:53:21;96019.00;;;2.19;80.93
26083;BME280;13848;49.018;12.078;2024-02-26T04:55:49;96023.53;;;2.12;81.40
26083;BME280;13848;49.018;12.078;2024-02-26T04:58:15;96018.41;;;2.17;81.15
26083;BME280;13848;49.018;12.078;2024-02-26T05:00:40;96020.47;;;2.15;81.35
26083;BME280;13848;49.018;12.078;2024-02-26T05:03:06;96014.53;;;2.13;81.50
26083;BME280;13848;49.018;12.078;2024-02-26T05:05:32;96030.50;;;2.06;81.37
26083;BME280;13848;49.018;12.078;2024-02-26T05:07:58;96031.72;;;2.10;81.30
26083;BME280;13848;49.018;12.078;2024-02-26T05:10:24;96030.94;;;2.03;81.18
26083;BME280;13848;49.018;12.078;2024-02-26T05:12:51;96035.38;;;2.16;81.21
26083;BME280;13848;49.018;12.078;2024-02-26T05:15:17;96023.13;;;2.15;81.33
26083;BME280;13848;49.018;12.078;2024-02-26T05:17:44;96036.63;;;2.07;81.11
26083;BME280;13848;49.018;12.078;2024-02-26T05:20:10;96044.03;;;1.98;81.17
26083;BME280;13848;49.018;12.078;2024-02-26T05:22:36;96053.47;;;1.74;81.63
26083;BME280;13848;49.018;12.078;2024-02-26T05:25:03;96047.75;;;1.64;83.67
26083;BME280;13848;49.018;12.078;2024-02-26T05:27:29;96046.50;;;1.86;82.97
26083;BME280;13848;49.018;12.078;2024-02-26T05:29:56;96048.88;;;2.08;82.34
26083;BME280;13848;49.018;12.078;2024-02-26T05:32:22;96050.91;;;2.19;81.19
26083;BME280;13848;49.018;12.078;2024-02-26T05:34:48;96048.47;;;2.18;81.38
26083;BME280;13848;49.018;12.078;2024-02-26T05:37:14;96050.09;;;2.19;81.23
26083;BME280;13848;49.018;12.078;2024-02-26T05:39:40;96059.94;;;2.05;81.86
26083;BME280;13848;49.018;12.078;2024-02-26T05:42:06;96054.63;;;2.05;81.39
26083;BME280;13848;49.018;12.078;2024-02-26T05:44:32;96051.38;;;2.09;81.62
26083;BME280;13848;49.018;12.078;2024-02-26T05:46:59;96044.78;;;2.12;81.41
26083;BME280;13848;49.018;12.078;2024-02-26T05:49:26;96047.22;;;2.20;81.24
26083;BME280;13848;49.018;12.078;2024-02-26T05:51:51;96050.53;;;2.16;80.67
26083;BME280;13848;49.018;12.078;2024-02-26T05:54:17;96048.09;;;2.01;81.28
26083;BME280;13848;49.018;12.078;2024-02-26T05:56:43;96048.94;;;1.95;81.54
26083;BME280;13848;49.018;12.078;2024-02-26T05:59:09;96047.31;;;1.94;81.49
26083;BME280;13848;49.018;12.078;2024-02-26T06:01:35;96049.97;;;1.87;81.65
26083;BME280;13848;49.018;12.078;2024-02-26T06:04:03;96045.06;;;1.84;81.98
26083;BME280;13848;49.018;12.078;2024-02-26T06:06:29;96057.31;;;1.85;82.13
26083;BME280;13848;49.018;12.078;2024-02-26T06:08:55;96046.69;;;1.85;82.11
26083;BME280;13848;49.018;12.078;2024-02-26T06:11:20;96046.09;;;1.83;81.96
26083;BME280;13848;49.018;12.078;2024-02-26T06:13:46;96048.53;;;1.84;81.80
26083;BME280;13848;49.018;12.078;2024-02-26T06:16:12;96048.94;;;1.88;81.54
26083;BME280;13848;49.018;12.078;2024-02-26T06:18:38;96041.56;;;1.90;81.83
26083;BME280;13848;49.018;12.078;2024-02-26T06:21:09;96049.97;;;1.94;82.02
26083;BME280;13848;49.018;12.078;2024-02-26T06:23:35;96049.16;;;1.93;81.83
26083;BME280;13848;49.018;12.078;2024-02-26T06:26:01;96046.06;;;1.96;81.71
26083;BME280;13848;49.018;12.078;2024-02-26T06:28:27;96058.34;;;1.97;81.59
26083;BME280;13848;49.018;12.078;2024-02-26T06:30:52;96063.22;;;2.00;81.40
26083;BME280;13848;49.018;12.078;2024-02-26T06:33:18;96068.97;;;2.04;81.70
26083;BME280;13848;49.018;12.078;2024-02-26T06:35:44;96064.84;;;2.01;81.78
26083;BME280;13848;49.018;12.078;2024-02-26T06:38:12;96069.78;;;2.04;81.63
26083;BME280;13848;49.018;12.078;2024-02-26T06:40:38;96080.16;;;2.19;81.67
26083;BME280;13848;49.018;12.078;2024-02-26T06:43:04;96076.06;;;2.23;81.30
26083;BME280;13848;49.018;12.078;2024-02-26T06:45:30;96075.41;;;2.34;81.14
26083;BME280;13848;49.018;12.078;2024-02-26T06:47:56;96072.13;;;2.39;81.06
26083;BME280;13848;49.018;12.078;2024-02-26T06:50:22;96083.50;;;2.59;80.62
26083;BME280;13848;49.018;12.078;2024-02-26T06:52:48;96086.16;;;2.59;80.52
26083;BME280;13848;49.018;12.078;2024-02-26T06:55:15;96102.56;;;2.94;80.52
26083;BME280;13848;49.018;12.078;2024-02-26T06:57:41;96101.69;;;3.07;79.72
26083;BME280;13848;49.018;12.078;2024-02-26T07:00:08;96105.41;;;3.63;79.22
26083;BME280;13848;49.018;12.078;2024-02-26T07:02:34;96106.13;;;3.77;78.78
26083;BME280;13848;49.018;12.078;2024-02-26T07:05:00;96118.06;;;4.17;78.08
26083;BME280;13848;49.018;12.078;2024-02-26T07:07:26;96117.56;;;4.27;76.85
26083;BME280;13848;49.018;12.078;2024-02-26T07:09:52;96116.84;;;4.57;77.87
26083;BME280;13848;49.018;12.078;2024-02-26T07:12:19;96110.97;;;4.85;76.02
26083;BME280;13848;49.018;12.078;2024-02-26T07:14:45;96115.38;;;5.39;76.23
26083;BME280;13848;49.018;12.078;2024-02-26T07:17:11;96119.47;;;5.95;77.05
26083;BME280;13848;49.018;12.078;2024-02-26T07:19:37;96120.44;;;6.36;75.33
26083;BME280;13848;49.018;12.078;2024-02-26T07:22:03;96109.94;;;6.46;73.82
26083;BME280;13848;49.018;12.078;2024-02-26T07:24:29;96114.72;;;6.68;72.64
26083;BME280;13848;49.018;12.078;2024-02-26T07:26:55;96115.34;;;7.27;73.91
26083;BME280;13848;49.018;12.078;2024-02-26T07:29:22;96124.69;;;7.69;71.35
26083;BME280;13848;49.018;12.078;2024-02-26T07:31:48;96123.25;;;7.79;71.94
26083;BME280;13848;49.018;12.078;2024-02-26T07:34:14;96132.22;;;7.84;70.90
26083;BME280;13848;49.018;12.078;2024-02-26T07:36:40;96130.91;;;8.20;70.19
26083;BME280;13848;49.018;12.078;2024-02-26T07:39:06;96131.88;;;8.14;68.21
26083;BME280;13848;49.018;12.078;2024-02-26T07:41:32;96123.84;;;8.48;68.68
26083;BME280;13848;49.018;12.078;2024-02-26T07:43:58;96136.66;;;8.63;64.97
26083;BME280;13848;49.018;12.078;2024-02-26T07:46:25;96130.16;;;8.59;66.82
26083;BME280;13848;49.018;12.078;2024-02-26T07:48:51;96130.41;;;8.57;64.67
26083;BME280;13848;49.018;12.078;2024-02-26T07:51:17;96132.19;;;8.35;64.54
26083;BME280;13848;49.018;12.078;2024-02-26T07:53:43;96136.44;;;8.64;65.70
26083;BME280;13848;49.018;12.078;2024-02-26T07:56:09;96142.72;;;8.53;65.65
26083;BME280;13848;49.018;12.078;2024-02-26T07:58:35;96143.47;;;8.87;64.29
26083;BME280;13848;49.018;12.078;2024-02-26T08:01:01;96139.69;;;9.10;65.11
26083;BME280;13848;49.018;12.078;2024-02-26T08:03:28;96136.31;;;9.42;63.90
26083;BME280;13848;49.018;12.078;2024-02-26T08:05:54;96135.50;;;8.97;63.65
26083;BME280;13848;49.018;12.078;2024-02-26T08:08:20;96130.06;;;9.14;63.77
26083;BME280;13848;49.018;12.078;2024-02-26T08:10:46;96128.78;;;9.44;64.71
26083;BME280;13848;49.018;12.078;2024-02-26T08:13:12;96141.09;;;9.89;64.62
26083;BME280;13848;49.018;12.078;2024-02-26T08:15:38;96136.66;;;10.36;63.35
26083;BME280;13848;49.018;12.078;2024-02-26T08:18:05;96142.28;;;10.67;57.99
26083;BME280;13848;49.018;12.078;2024-02-26T08:20:32;96145.28;;;11.28;60.72
26083;BME280;13848;49.018;12.078;2024-02-26T08:22:58;96142.31;;;11.35;60.50
26083;BME280;13848;49.018;12.078;2024-02-26T08:25:24;96136.81;;;11.92;60.12
26083;BME280;13848;49.018;12.078;2024-02-26T08:27:50;96129.81;;;12.22;59.26
26083;BME280;13848;49.018;12.078;2024-02-26T08:30:16;96135.22;;;12.22;58.44
26083;BME280;13848;49.018;12.078;2024-02-26T08:32:42;96142.78;;;12.50;56.95
26083;BME280;13848;49.018;12.078;2024-02-26T08:35:08;96151.44;;;12.42;57.02
26083;BME280;13848;49.018;12.078;2024-02-26T08:37:35;96141.44;;;12.43;56.19
26083;BME280;13848;49.018;12.078;2024-02-26T08:40:02;96142.81;;;12.20;55.17
26083;BME280;13848;49.018;12.078;2024-02-26T08:42:28;96146.59;;;12.24;53.42
26083;BME280;13848;49.018;12.078;2024-02-26T08:44:54;96150.31;;;11.87;54.38
26083;BME280;13848;49.018;12.078;2024-02-26T08:47:20;96140.78;;;11.59;54.29
26083;BME280;13848;49.018;12.078;2024-02-26T08:49:46;96152.22;;;11.92;53.07
26083;BME280;13848;49.018;12.078;2024-02-26T08:52:12;96141.84;;;11.58;51.47
26083;BME280;13848;49.018;12.078;2024-02-26T08:54:39;96142.22;;;11.82;51.47
26083;BME280;13848;49.018;12.078;2024-02-26T08:57:05;96154.66;;;11.93;53.73
26083;BME280;13848;49.018;12.078;2024-02-26T08:59:31;96151.34;;;11.71;53.49
26083;BME280;13848;49.018;12.078;2024-02-26T09:01:57;96147.06;;;11.07;54.63
26083;BME280;13848;49.018;12.078;2024-02-26T09:04:23;96150.69;;;11.33;53.96
26083;BME280;13848;49.018;12.078;2024-02-26T09:06:49;96147.75;;;11.40;54.43
26083;BME280;13848;49.018;12.078;2024-02-26T09:09:15;96147.38;;;11.16;52.81
26083;BME280;13848;49.018;12.078;2024-02-26T09:11:42;96149.97;;;10.96;53.99
26083;BME280;13848;49.018;12.078;2024-02-26T09:14:08;96152.34;;;11.44;54.90
26083;BME280;13848;49.018;12.078;2024-02-26T09:16:34;96151.50;;;11.34;53.98
26083;BME280;13848;49.018;12.078;2024-02-26T09:19:01;96162.75;;;11.15;53.84
26083;BME280;13848;49.018;12.078;2024-02-26T09:21:27;96161.09;;;11.77;54.21
26083;BME280;13848;49.018;12.078;2024-02-26T09:23:53;96155.66;;;11.62;53.50
26083;BME280;13848;49.018;12.078;2024-02-26T09:26:19;96149.94;;;11.43;51.66
26083;BME280;13848;49.018;12.078;2024-02-26T09:28:46;96148.97;;;11.12;51.31
26083;BME280;13848;49.018;12.078;2024-02-26T09:31:12;96151.72;;;10.70;52.68
26083;BME280;13848;49.018;12.078;2024-02-26T09:33:38;96153.97;;;10.88;52.28
26083;BME280;13848;49.018;12.078;2024-02-26T09:36:04;96160.31;;;11.09;53.36
26083;BME280;13848;49.018;12.078;2024-02-26T09:38:30;96163.84;;;11.14;51.72
26083;BME280;13848;49.018;12.078;2024-02-26T09:40:57;96166.50;;;10.62;52.54
26083;BME280;13848;49.018;12.078;2024-02-26T09:43:23;96162.31;;;10.81;53.78
26083;BME280;13848;49.018;12.078;2024-02-26T09:45:52;96160.63;;;11.23;51.50
26083;BME280;13848;49.018;12.078;2024-02-26T09:48:19;96166.03;;;11.23;50.91
26083;BME280;13848;49.018;12.078;2024-02-26T09:50:46;96161.81;;;10.95;51.85
26083;BME280;13848;49.018;12.078;2024-02-26T09:53:12;96159.59;;;10.81;50.28
26083;BME280;13848;49.018;12.078;2024-02-26T09:55:38;96165.84;;;10.18;51.27
26083;BME280;13848;49.018;12.078;2024-02-26T09:58:05;96155.88;;;10.18;51.27
26083;BME280;13848;49.018;12.078;2024-02-26T10:00:31;96151.03;;;10.15;50.22
26083;BME280;13848;49.018;12.078;2024-02-26T10:03:03;96155.06;;;10.18;51.50
26083;BME280;13848;49.018;12.078;2024-02-26T10:05:31;96150.91;;;10.32;50.79
26083;BME280;13848;49.018;12.078;2024-02-26T10:07:57;96159.06;;;10.42;51.91
26083;BME280;13848;49.018;12.078;2024-02-26T10:10:24;96157.53;;;10.51;53.77
26083;BME280;13848;49.018;12.078;2024-02-26T10:12:50;96158.66;;;9.69;52.99
26083;BME280;13848;49.018;12.078;2024-02-26T10:15:16;96159.44;;;9.43;51.34
26083;BME280;13848;49.018;12.078;2024-02-26T10:17:42;96157.38;;;9.50;53.08
26083;BME280;13848;49.018;12.078;2024-02-26T10:20:13;96162.06;;;9.86;52.92
26083;BME280;13848;49.018;12.078;2024-02-26T10:22:40;96163.63;;;10.09;52.85
26083;BME280;13848;49.018;12.078;2024-02-26T10:25:07;96162.06;;;10.19;53.27
26083;BME280;13848;49.018;12.078;2024-02-26T10:27:33;96165.75;;;10.34;53.43
26083;BME280;13848;49.018;12.078;2024-02-26T10:30:02;96173.97;;;10.23;52.40
26083;BME280;13848;49.018;12.078;2024-02-26T10:32:28;96164.56;;;9.93;53.17
26083;BME280;13848;49.018;12.078;2024-02-26T10:34:55;96163.63;;;10.09;52.40
26083;BME280;13848;49.018;12.078;2024-02-26T10:37:23;96165.66;;;10.24;53.96
26083;BME280;13848;49.018;12.078;2024-02-26T10:39:49;96155.25;;;10.75;52.09
26083;BME280;13848;49.018;12.078;2024-02-26T10:42:15;96157.88;;;10.65;51.99
26083;BME280;13848;49.018;12.078;2024-02-26T10:44:41;96163.44;;;10.90;52.44
26083;BME280;13848;49.018;12.078;2024-02-26T10:47:08;96161.84;;;11.00;51.26
26083;BME280;13848;49.018;12.078;2024-02-26T10:49:35;96162.72;;;10.63;50.67
26083;BME280;13848;49.018;12.078;2024-02-26T10:52:01;96164.84;;;11.03;50.73
26083;BME280;13848;49.018;12.078;2024-02-26T10:54:29;96166.47;;;11.67;50.57
26083;BME280;13848;49.018;12.078;2024-02-26T10:56:56;96169.34;;;11.45;48.97
26083;BME280;13848;49.018;12.078;2024-02-26T10:59:22;96171.81;;;11.52;48.36
26083;BME280;13848;49.018;12.078;2024-02-26T11:01:49;96170.25;;;11.66;48.86
26083;BME280;13848;49.018;12.078;2024-02-26T11:04:16;96172.50;;;11.89;48.40
26083;BME280;13848;49.018;12.078;2024-02-26T11:06:43;96167.13;;;12.25;48.05
26083;BME280;13848;49.018;12.078;2024-02-26T11:09:11;96168.03;;;11.58;47.34
26083;BME280;13848;49.018;12.078;2024-02-26T11:11:40;96170.41;;;11.39;48.03
26083;BME280;13848;49.018;12.078;2024-02-26T11:14:08;96169.41;;;11.70;47.53
26083;BME280;13848;49.018;12.078;2024-02-26T11:16:35;96172.38;;;11.64;48.24
26083;BME280;13848;49.018;12.078;2024-02-26T11:19:02;96173.06;;;12.12;48.53
26083;BME280;13848;49.018;12.078;2024-02-26T11:21:28;96166.03;;;12.11;46.68
26083;BME280;13848;49.018;12.078;2024-02-26T11:23:54;96158.47;;;12.54;47.75
26083;BME280;13848;49.018;12.078;2024-02-26T11:26:21;96165.25;;;12.31;45.78
26083;BME280;13848;49.018;12.078;2024-02-26T11:28:50;96157.28;;;11.73;46.24
26083;BME280;13848;49.018;12.078;2024-02-26T11:31:17;96161.78;;;11.37;46.85
26083;BME280;13848;49.018;12.078;2024-02-26T11:33:44;96154.53;;;11.53;47.16
26083;BME280;13848;49.018;12.078;2024-02-26T11:36:11;96159.81;;;11.22;47.33
26083;BME280;13848;49.018;12.078;2024-02-26T11:38:37;96151.19;;;11.30;47.26
26083;BME280;13848;49.018;12.078;2024-02-26T11:41:04;96146.78;;;11.04;48.07
26083;BME280;13848;49.018;12.078;2024-02-26T11:43:50;96148.94;;;11.02;47.94
26083;BME280;13848;49.018;12.078;2024-02-26T11:46:25;96144.00;;;10.88;48.52
26083;BME280;13848;49.018;12.078;2024-02-26T11:48:51;96143.44;;;10.81;48.34
26083;BME280;13848;49.018;12.078;2024-02-26T11:51:17;96152.81;;;10.74;48.53
26083;BME280;13848;49.018;12.078;2024-02-26T11:53:46;96156.41;;;10.89;48.22
26083;BME280;13848;49.018;12.078;2024-02-26T11:56:22;96152.88;;;10.42;48.63
26083;BME280;13848;49.018;12.078;2024-02-26T11:58:49;96152.22;;;10.61;48.26
26083;BME280;13848;49.018;12.078;2024-02-26T12:01:44;96154.19;;;10.76;48.89
26083;BME280;13848;49.018;12.078;2024-02-26T12:04:15;96148.97;;;11.12;48.80
26083;BME280;13848;49.018;12.078;2024-02-26T12:06:43;96149.50;;;11.09;48.94
26083;BME280;13848;49.018;12.078;2024-02-26T12:09:10;96149.31;;;11.26;48.12
26083;BME280;13848;49.018;12.078;2024-02-26T12:11:38;96148.22;;;11.22;47.31
26083;BME280;13848;49.018;12.078;2024-02-26T12:14:05;96153.13;;;10.82;47.62
26083;BME280;13848;49.018;12.078;2024-02-26T12:16:35;96153.84;;;11.15;48.04
26083;BME280;13848;49.018;12.078;2024-02-26T12:19:04;96151.97;;;10.68;47.74
26083;BME280;13848;49.018;12.078;2024-02-26T12:21:30;96165.22;;;10.75;48.19
26083;BME280;13848;49.018;12.078;2024-02-26T12:24:06;96158.13;;;11.11;48.02
26083;BME280;13848;49.018;12.078;2024-02-26T12:26:33;96167.94;;;11.27;48.38
26083;BME280;13848;49.018;12.078;2024-02-26T12:28:59;96168.41;;;11.14;47.96
26083;BME280;13848;49.018;12.078;2024-02-26T12:31:26;96177.84;;;11.11;47.36
26083;BME280;13848;49.018;12.078;2024-02-26T12:33:52;96166.56;;;11.19;47.65
26083;BME280;13848;49.018;12.078;2024-02-26T12:36:20;96175.69;;;11.18;46.92
26083;BME280;13848;49.018;12.078;2024-02-26T12:38:46;96181.09;;;11.13;47.01
26083;BME280;13848;49.018;12.078;2024-02-26T12:41:13;96176.47;;;11.09;47.38
26083;BME280;13848;49.018;12.078;2024-02-26T12:43:39;96179.34;;;11.44;48.16
26083;BME280;13848;49.018;12.078;2024-02-26T12:46:05;96182.84;;;10.92;46.77
26083;BME280;13848;49.018;12.078;2024-02-26T12:48:31;96179.25;;;11.24;46.54
26083;BME280;13848;49.018;12.078;2024-02-26T12:50:57;96186.91;;;11.42;46.03
26083;BME280;13848;49.018;12.078;2024-02-26T12:53:24;96196.78;;;11.89;46.68